sensor_id;sensor_type;location;lat;lon;timestamp;P1;durP1;ratioP1;P2;durP2;ratioP2
29700;SDS011;57917;51.380;-0.176;2023-05-14T00:00:46;21.70;;;11.07;;
29700;SDS011;57917;51.380;-0.176;2023-05-14T00:06:33;25.52;;;10.88;;
29700;SDS011;57917;51.380;-0.176;2023-05-14T00:12:22;24.08;;;10.10;;
29700;SDS011;57917;51.380;-0.176;2023-05-14T00:18:09;25.73;;;11.10;;
29700;SDS011;57917;51.380;-0.176;2023-05-14T00:23:59;21.02;;;11.63;;
29700;SDS011;57917;51.380;-0.176;2023-05-14T00:29:49;24.27;;;12.35;;
29700;SDS011;57917;51.380;-0.176;2023-05-14T00:35:39;22.15;;;10.52;;
29700;SDS011;57917;51.380;-0.176;2023-05-14T00:41:26;19.10;;;10.57;;
29700;SDS011;57917;51.380;-0.176;2023-05-14T00:47:15;31.80;;;13.43;;
29700;SDS011;57917;51.380;-0.176;2023-05-14T00:53:03;25.63;;;13.40;;
29700;SDS011;57917;51.380;-0.176;2023-05-14T01:04:42;24.80;;;12.57;;
29700;SDS011;57917;51.380;-0.176;2023-05-14T01:10:50;31.40;;;13.75;;
29700;SDS011;57917;51.380;-0.176;2023-05-14T01:16:40;29.65;;;13.45;;
29700;SDS011;57917;51.380;-0.176;2023-05-14T01:22:32;27.70;;;14.02;;
29700;SDS011;57917;51.380;-0.176;2023-05-14T01:28:19;32.25;;;13.88;;
29700;SDS011;57917;51.380;-0.176;2023-05-14T01:34:16;27.60;;;13.32;;
29700;SDS011;57917;51.380;-0.176;2023-05-14T01:40:07;25.67;;;13.65;;
29700;SDS011;57917;51.380;-0.176;2023-05-14T01:45:56;34.38;;;14.73;;
29700;SDS011;57917;51.380;-0.176;2023-05-14T01:51:49;24.58;;;13.10;;
29700;SDS011;57917;51.380;-0.176;2023-05-14T01:57:39;65.78;;;27.23;;
29700;SDS011;57917;51.380;-0.176;2023-05-14T02:03:30;28.25;;;12.45;;
29700;SDS011;57917;51.380;-0.176;2023-05-14T02:09:17;26.80;;;12.77;;
29700;SDS011;57917;51.380;-0.176;2023-05-14T02:15:04;29.15;;;13.93;;
29700;SDS011;57917;51.380;-0.176;2023-05-14T02:20:51;31.40;;;14.32;;
29700;SDS011;57917;51.380;-0.176;2023-05-14T02:26:38;25.90;;;12.18;;
29700;SDS011;57917;51.380;-0.176;2023-05-14T02:32:27;22.25;;;12.23;;
29700;SDS011;57917;51.380;-0.176;2023-05-14T02:38:25;26.05;;;11.55;;
29700;SDS011;57917;51.380;-0.176;2023-05-14T02:44:14;25.15;;;11.38;;
29700;SDS011;57917;51.380;-0.176;2023-05-14T02:50:01;19.42;;;10.48;;
29700;SDS011;57917;51.380;-0.176;2023-05-14T02:55:51;19.55;;;10.13;;
29700;SDS011;57917;51.380;-0.176;2023-05-14T03:01:44;23.50;;;10.70;;
29700;SDS011;57917;51.380;-0.176;2023-05-14T03:07:32;22.23;;;11.48;;
29700;SDS011;57917;51.380;-0.176;2023-05-14T03:13:19;23.92;;;10.85;;
29700;SDS011;57917;51.380;-0.176;2023-05-14T03:19:06;26.35;;;10.55;;
29700;SDS011;57917;51.380;-0.176;2023-05-14T03:24:57;23.25;;;10.02;;
29700;SDS011;57917;51.380;-0.176;2023-05-14T03:30:44;19.48;;;9.90;;
29700;SDS011;57917;51.380;-0.176;2023-05-14T03:36:31;25.67;;;10.73;;
29700;SDS011;57917;51.380;-0.176;2023-05-14T03:42:21;22.08;;;10.88;;
29700;SDS011;57917;51.380;-0.176;2023-05-14T03:48:08;29.02;;;11.68;;
29700;SDS011;57917;51.380;-0.176;2023-05-14T03:53:58;23.98;;;11.48;;
29700;SDS011;57917;51.380;-0.176;2023-05-14T03:59:46;23.20;;;10.70;;
29700;SDS011;57917;51.380;-0.176;2023-05-14T04:05:33;25.00;;;10.00;;
29700;SDS011;57917;51.380;-0.176;2023-05-14T04:11:22;18.20;;;10.07;;
29700;SDS011;57917;51.380;-0.176;2023-05-14T04:17:14;20.88;;;10.80;;
29700;SDS011;57917;51.380;-0.176;2023-05-14T04:23:01;29.65;;;10.90;;
29700;SDS011;57917;51.380;-0.176;2023-05-14T04:28:50;22.38;;;10.82;;
29700;SDS011;57917;51.380;-0.176;2023-05-14T04:34:37;21.98;;;9.80;;
29700;SDS011;57917;51.380;-0.176;2023-05-14T04:40:29;18.63;;;10.13;;
29700;SDS011;57917;51.380;-0.176;2023-05-14T04:46:16;20.40;;;11.13;;
29700;SDS011;57917;51.380;-0.176;2023-05-14T04:52:03;23.40;;;10.07;;
29700;SDS011;57917;51.380;-0.176;2023-05-14T04:57:53;23.88;;;10.63;;
29700;SDS011;57917;51.380;-0.176;2023-05-14T05:03:41;20.67;;;10.57;;
29700;SDS011;57917;51.380;-0.176;2023-05-14T05:09:28;24.55;;;10.70;;
29700;SDS011;57917;51.380;-0.176;2023-05-14T05:15:15;28.08;;;11.15;;
29700;SDS011;57917;51.380;-0.176;2023-05-14T05:21:08;21.80;;;11.35;;
29700;SDS011;57917;51.380;-0.176;2023-05-14T05:26:55;25.70;;;11.60;;
29700;SDS011;57917;51.380;-0.176;2023-05-14T05:32:46;23.45;;;11.40;;
29700;SDS011;57917;51.380;-0.176;2023-05-14T05:38:36;22.52;;;11.30;;
29700;SDS011;57917;51.380;-0.176;2023-05-14T05:44:23;19.85;;;11.00;;
29700;SDS011;57917;51.380;-0.176;2023-05-14T05:50:12;22.75;;;10.48;;
29700;SDS011;57917;51.380;-0.176;2023-05-14T05:55:59;29.58;;;12.70;;
29700;SDS011;57917;51.380;-0.176;2023-05-14T06:01:49;24.08;;;11.45;;
29700;SDS011;57917;51.380;-0.176;2023-05-14T06:07:37;22.33;;;11.65;;
29700;SDS011;57917;51.380;-0.176;2023-05-14T06:13:24;24.45;;;11.57;;
29700;SDS011;57917;51.380;-0.176;2023-05-14T06:19:13;33.97;;;12.23;;
29700;SDS011;57917;51.380;-0.176;2023-05-14T06:25:03;23.77;;;11.57;;
29700;SDS011;57917;51.380;-0.176;2023-05-14T06:30:51;27.08;;;10.63;;
29700;SDS011;57917;51.380;-0.176;2023-05-14T06:36:40;23.20;;;11.57;;
29700;SDS011;57917;51.380;-0.176;2023-05-14T06:42:27;25.00;;;12.30;;
29700;SDS011;57917;51.380;-0.176;2023-05-14T06:48:13;18.25;;;10.13;;
29700;SDS011;57917;51.380;-0.176;2023-05-14T06:54:01;32.25;;;12.65;;
29700;SDS011;57917;51.380;-0.176;2023-05-14T06:59:48;26.48;;;10.98;;
29700;SDS011;57917;51.380;-0.176;2023-05-14T07:05:36;26.08;;;12.05;;
29700;SDS011;57917;51.380;-0.176;2023-05-14T07:11:26;25.70;;;11.65;;
29700;SDS011;57917;51.380;-0.176;2023-05-14T07:17:14;28.20;;;11.60;;
29700;SDS011;57917;51.380;-0.176;2023-05-14T07:23:05;30.45;;;12.60;;
29700;SDS011;57917;51.380;-0.176;2023-05-14T07:28:56;23.80;;;11.18;;
29700;SDS011;57917;51.380;-0.176;2023-05-14T07:34:49;85.45;;;15.20;;
29700;SDS011;57917;51.380;-0.176;2023-05-14T07:40:37;17.98;;;10.32;;
29700;SDS011;57917;51.380;-0.176;2023-05-14T07:46:28;27.42;;;11.27;;
29700;SDS011;57917;51.380;-0.176;2023-05-14T07:52:20;28.30;;;11.93;;
29700;SDS011;57917;51.380;-0.176;2023-05-14T08:04:40;20.83;;;10.48;;
29700;SDS011;57917;51.380;-0.176;2023-05-14T08:10:39;20.02;;;10.25;;
29700;SDS011;57917;51.380;-0.176;2023-05-14T08:16:35;19.55;;;9.95;;
29700;SDS011;57917;51.380;-0.176;2023-05-14T08:22:22;20.05;;;8.90;;
29700;SDS011;57917;51.380;-0.176;2023-05-14T08:28:09;13.63;;;8.85;;
29700;SDS011;57917;51.380;-0.176;2023-05-14T08:33:56;20.77;;;10.02;;
29700;SDS011;57917;51.380;-0.176;2023-05-14T08:39:45;16.25;;;9.05;;
29700;SDS011;57917;51.380;-0.176;2023-05-14T08:45:32;18.30;;;10.05;;
29700;SDS011;57917;51.380;-0.176;2023-05-14T08:51:24;19.25;;;9.35;;
29700;SDS011;57917;51.380;-0.176;2023-05-14T08:57:12;20.88;;;9.65;;
29700;SDS011;57917;51.380;-0.176;2023-05-14T09:03:19;19.17;;;9.98;;
29700;SDS011;57917;51.380;-0.176;2023-05-14T09:15:40;16.80;;;10.35;;
29700;SDS011;57917;51.380;-0.176;2023-05-14T09:21:32;21.02;;;9.43;;
29700;SDS011;57917;51.380;-0.176;2023-05-14T09:27:22;20.67;;;10.50;;
29700;SDS011;57917;51.380;-0.176;2023-05-14T09:33:13;26.50;;;10.13;;
29700;SDS011;57917;51.380;-0.176;2023-05-14T09:39:23;21.88;;;11.30;;
29700;SDS011;57917;51.380;-0.176;2023-05-14T09:45:13;23.13;;;11.40;;
29700;SDS011;57917;51.380;-0.176;2023-05-14T09:51:01;20.92;;;10.57;;
29700;SDS011;57917;51.380;-0.176;2023-05-14T09:56:53;23.92;;;10.65;;
29700;SDS011;57917;51.380;-0.176;2023-05-14T10:02:42;20.00;;;10.15;;
29700;SDS011;57917;51.380;-0.176;2023-05-14T10:08:37;27.90;;;10.65;;
29700;SDS011;57917;51.380;-0.176;2023-05-14T10:14:32;17.73;;;10.43;;
29700;SDS011;57917;51.380;-0.176;2023-05-14T10:20:25;20.52;;;11.55;;
29700;SDS011;57917;51.380;-0.176;2023-05-14T10:26:15;22.65;;;11.07;;
29700;SDS011;57917;51.380;-0.176;2023-05-14T10:32:04;17.15;;;9.85;;
29700;SDS011;57917;51.380;-0.176;2023-05-14T10:37:53;18.40;;;9.68;;
29700;SDS011;57917;51.380;-0.176;2023-05-14T10:43:43;21.52;;;10.38;;
29700;SDS011;57917;51.380;-0.176;2023-05-14T10:49:30;17.42;;;10.48;;
29700;SDS011;57917;51.380;-0.176;2023-05-14T10:55:30;26.17;;;11.35;;
29700;SDS011;57917;51.380;-0.176;2023-05-14T11:01:17;21.35;;;11.20;;
29700;SDS011;57917;51.380;-0.176;2023-05-14T11:07:08;20.77;;;10.15;;
29700;SDS011;57917;51.380;-0.176;2023-05-14T11:12:56;33.70;;;11.88;;
29700;SDS011;57917;51.380;-0.176;2023-05-14T11:18:44;16.83;;;9.55;;
29700;SDS011;57917;51.380;-0.176;2023-05-14T11:24:33;17.60;;;9.32;;
29700;SDS011;57917;51.380;-0.176;2023-05-14T11:30:20;16.88;;;9.98;;
29700;SDS011;57917;51.380;-0.176;2023-05-14T11:42:01;15.85;;;8.80;;
29700;SDS011;57917;51.380;-0.176;2023-05-14T11:47:49;16.25;;;9.32;;
29700;SDS011;57917;51.380;-0.176;2023-05-14T11:53:43;19.30;;;9.35;;
29700;SDS011;57917;51.380;-0.176;2023-05-14T11:59:31;20.85;;;9.75;;
29700;SDS011;57917;51.380;-0.176;2023-05-14T12:05:18;20.05;;;10.52;;
29700;SDS011;57917;51.380;-0.176;2023-05-14T12:11:09;25.17;;;10.60;;
29700;SDS011;57917;51.380;-0.176;2023-05-14T12:16:59;16.77;;;10.15;;
29700;SDS011;57917;51.380;-0.176;2023-05-14T12:22:59;16.10;;;9.55;;
29700;SDS011;57917;51.380;-0.176;2023-05-14T12:28:49;17.50;;;8.98;;
29700;SDS011;57917;51.380;-0.176;2023-05-14T12:34:49;15.50;;;8.05;;
29700;SDS011;57917;51.380;-0.176;2023-05-14T12:40:38;34.08;;;10.35;;
29700;SDS011;57917;51.380;-0.176;2023-05-14T12:46:35;14.30;;;8.60;;
29700;SDS011;57917;51.380;-0.176;2023-05-14T12:52:27;15.68;;;7.93;;
29700;SDS011;57917;51.380;-0.176;2023-05-14T12:58:25;21.30;;;9.82;;
29700;SDS011;57917;51.380;-0.176;2023-05-14T13:04:17;17.45;;;8.38;;
29700;SDS011;57917;51.380;-0.176;2023-05-14T13:10:04;10.68;;;5.47;;
29700;SDS011;57917;51.380;-0.176;2023-05-14T13:15:52;10.07;;;6.05;;
29700;SDS011;57917;51.380;-0.176;2023-05-14T13:21:39;10.40;;;6.72;;
29700;SDS011;57917;51.380;-0.176;2023-05-14T13:27:30;12.10;;;6.55;;
29700;SDS011;57917;51.380;-0.176;2023-05-14T13:33:26;14.30;;;5.70;;
29700;SDS011;57917;51.380;-0.176;2023-05-14T13:39:16;11.67;;;6.47;;
29700;SDS011;57917;51.380;-0.176;2023-05-14T13:45:18;10.73;;;6.40;;
29700;SDS011;57917;51.380;-0.176;2023-05-14T13:51:19;11.73;;;5.20;;
29700;SDS011;57917;51.380;-0.176;2023-05-14T13:57:13;8.80;;;5.13;;
29700;SDS011;57917;51.380;-0.176;2023-05-14T14:03:10;8.80;;;5.47;;
29700;SDS011;57917;51.380;-0.176;2023-05-14T14:08:58;9.00;;;5.50;;
29700;SDS011;57917;51.380;-0.176;2023-05-14T14:14:47;8.15;;;3.70;;
29700;SDS011;57917;51.380;-0.176;2023-05-14T14:20:36;8.93;;;4.10;;
29700;SDS011;57917;51.380;-0.176;2023-05-14T14:26:24;5.22;;;3.83;;
29700;SDS011;57917;51.380;-0.176;2023-05-14T14:32:15;9.20;;;3.70;;
29700;SDS011;57917;51.380;-0.176;2023-05-14T14:38:02;7.60;;;4.32;;
29700;SDS011;57917;51.380;-0.176;2023-05-14T14:43:49;10.35;;;4.78;;
29700;SDS011;57917;51.380;-0.176;2023-05-14T14:49:36;8.07;;;4.97;;
29700;SDS011;57917;51.380;-0.176;2023-05-14T14:55:28;9.48;;;5.22;;
29700;SDS011;57917;51.380;-0.176;2023-05-14T15:01:15;11.52;;;4.75;;
29700;SDS011;57917;51.380;-0.176;2023-05-14T15:07:04;7.85;;;4.78;;
29700;SDS011;57917;51.380;-0.176;2023-05-14T15:12:51;17.90;;;5.50;;
29700;SDS011;57917;51.380;-0.176;2023-05-14T15:18:38;14.27;;;5.07;;
29700;SDS011;57917;51.380;-0.176;2023-05-14T15:24:27;14.55;;;5.88;;
29700;SDS011;57917;51.380;-0.176;2023-05-14T15:30:14;11.43;;;5.63;;
29700;SDS011;57917;51.380;-0.176;2023-05-14T15:36:01;49.63;;;9.57;;
29700;SDS011;57917;51.380;-0.176;2023-05-14T15:41:55;12.63;;;4.28;;
29700;SDS011;57917;51.380;-0.176;2023-05-14T15:47:41;10.40;;;4.63;;
29700;SDS011;57917;51.380;-0.176;2023-05-14T15:53:30;12.68;;;4.30;;
29700;SDS011;57917;51.380;-0.176;2023-05-14T15:59:18;6.40;;;3.90;;
29700;SDS011;57917;51.380;-0.176;2023-05-14T16:05:05;6.40;;;4.05;;
29700;SDS011;57917;51.380;-0.176;2023-05-14T16:10:54;8.00;;;3.78;;
29700;SDS011;57917;51.380;-0.176;2023-05-14T16:16:41;9.75;;;4.72;;
29700;SDS011;57917;51.380;-0.176;2023-05-14T16:22:29;17.05;;;4.65;;
29700;SDS011;57917;51.380;-0.176;2023-05-14T16:28:20;13.38;;;4.75;;
29700;SDS011;57917;51.380;-0.176;2023-05-14T16:34:08;7.63;;;4.25;;
29700;SDS011;57917;51.380;-0.176;2023-05-14T16:39:55;6.88;;;4.22;;
29700;SDS011;57917;51.380;-0.176;2023-05-14T16:45:43;7.45;;;4.13;;
29700;SDS011;57917;51.380;-0.176;2023-05-14T16:51:33;9.18;;;4.20;;
29700;SDS011;57917;51.380;-0.176;2023-05-14T16:57:46;14.15;;;6.28;;
29700;SDS011;57917;51.380;-0.176;2023-05-14T17:03:35;9.63;;;4.00;;
29700;SDS011;57917;51.380;-0.176;2023-05-14T17:09:29;7.20;;;4.05;;
29700;SDS011;57917;51.380;-0.176;2023-05-14T17:15:17;11.23;;;6.38;;
29700;SDS011;57917;51.380;-0.176;2023-05-14T17:21:07;6.25;;;3.50;;
29700;SDS011;57917;51.380;-0.176;2023-05-14T17:26:56;8.63;;;5.22;;
29700;SDS011;57917;51.380;-0.176;2023-05-14T17:32:42;7.50;;;3.30;;
29700;SDS011;57917;51.380;-0.176;2023-05-14T17:38:30;6.00;;;4.00;;
29700;SDS011;57917;51.380;-0.176;2023-05-14T17:44:20;6.50;;;4.13;;
29700;SDS011;57917;51.380;-0.176;2023-05-14T17:50:07;12.30;;;4.53;;
29700;SDS011;57917;51.380;-0.176;2023-05-14T17:55:56;5.30;;;3.80;;
29700;SDS011;57917;51.380;-0.176;2023-05-14T18:01:44;5.70;;;4.40;;
29700;SDS011;57917;51.380;-0.176;2023-05-14T18:07:32;7.07;;;4.05;;
29700;SDS011;57917;51.380;-0.176;2023-05-14T18:13:22;13.10;;;3.75;;
29700;SDS011;57917;51.380;-0.176;2023-05-14T18:19:10;7.25;;;3.53;;
29700;SDS011;57917;51.380;-0.176;2023-05-14T18:24:57;6.43;;;3.65;;
29700;SDS011;57917;51.380;-0.176;2023-05-14T18:30:49;10.20;;;3.70;;
29700;SDS011;57917;51.380;-0.176;2023-05-14T18:36:44;7.57;;;3.10;;
29700;SDS011;57917;51.380;-0.176;2023-05-14T18:42:31;18.65;;;10.02;;
29700;SDS011;57917;51.380;-0.176;2023-05-14T18:48:19;21.58;;;11.40;;
29700;SDS011;57917;51.380;-0.176;2023-05-14T18:54:15;27.58;;;13.63;;
29700;SDS011;57917;51.380;-0.176;2023-05-14T19:00:08;24.05;;;12.77;;
29700;SDS011;57917;51.380;-0.176;2023-05-14T19:05:57;28.48;;;12.85;;
29700;SDS011;57917;51.380;-0.176;2023-05-14T19:11:46;27.65;;;13.98;;
29700;SDS011;57917;51.380;-0.176;2023-05-14T19:17:33;29.75;;;13.13;;
29700;SDS011;57917;51.380;-0.176;2023-05-14T19:23:21;30.63;;;14.15;;
29700;SDS011;57917;51.380;-0.176;2023-05-14T19:29:10;26.70;;;12.98;;
29700;SDS011;57917;51.380;-0.176;2023-05-14T19:34:59;22.45;;;12.02;;
29700;SDS011;57917;51.380;-0.176;2023-05-14T19:40:47;34.35;;;17.17;;
29700;SDS011;57917;51.380;-0.176;2023-05-14T19:46:39;18.33;;;10.63;;
29700;SDS011;57917;51.380;-0.176;2023-05-14T19:52:32;19.55;;;11.32;;
29700;SDS011;57917;51.380;-0.176;2023-05-14T19:58:19;17.50;;;9.00;;
29700;SDS011;57917;51.380;-0.176;2023-05-14T20:04:08;18.60;;;7.47;;
29700;SDS011;57917;51.380;-0.176;2023-05-14T20:09:56;12.52;;;5.18;;
29700;SDS011;57917;51.380;-0.176;2023-05-14T20:15:47;27.52;;;11.38;;
29700;SDS011;57917;51.380;-0.176;2023-05-14T20:21:33;18.70;;;6.95;;
29700;SDS011;57917;51.380;-0.176;2023-05-14T20:27:22;10.23;;;4.20;;
29700;SDS011;57917;51.380;-0.176;2023-05-14T20:33:11;8.35;;;4.10;;
29700;SDS011;57917;51.380;-0.176;2023-05-14T20:39:00;6.15;;;3.28;;
29700;SDS011;57917;51.380;-0.176;2023-05-14T20:44:49;6.53;;;2.92;;
29700;SDS011;57917;51.380;-0.176;2023-05-14T20:50:45;4.90;;;2.47;;
29700;SDS011;57917;51.380;-0.176;2023-05-14T20:56:40;5.22;;;2.70;;
29700;SDS011;57917;51.380;-0.176;2023-05-14T21:02:33;3.30;;;2.10;;
29700;SDS011;57917;51.380;-0.176;2023-05-14T21:08:21;2.22;;;1.85;;
29700;SDS011;57917;51.380;-0.176;2023-05-14T21:14:08;4.47;;;2.42;;
29700;SDS011;57917;51.380;-0.176;2023-05-14T21:19:55;1.90;;;1.08;;
29700;SDS011;57917;51.380;-0.176;2023-05-14T21:25:43;2.75;;;1.02;;
29700;SDS011;57917;51.380;-0.176;2023-05-14T21:31:30;2.63;;;1.23;;
29700;SDS011;57917;51.380;-0.176;2023-05-14T21:37:20;6.60;;;1.00;;
29700;SDS011;57917;51.380;-0.176;2023-05-14T21:43:07;10.55;;;1.50;;
29700;SDS011;57917;51.380;-0.176;2023-05-14T21:49:03;2.28;;;1.13;;
29700;SDS011;57917;51.380;-0.176;2023-05-14T21:54:54;1.73;;;0.88;;
29700;SDS011;57917;51.380;-0.176;2023-05-14T22:01:15;4.28;;;1.05;;
29700;SDS011;57917;51.380;-0.176;2023-05-14T22:07:02;7.00;;;3.47;;
29700;SDS011;57917;51.380;-0.176;2023-05-14T22:12:51;1.83;;;1.10;;
29700;SDS011;57917;51.380;-0.176;2023-05-14T22:18:46;7.55;;;0.90;;
29700;SDS011;57917;51.380;-0.176;2023-05-14T22:24:39;2.95;;;1.30;;
29700;SDS011;57917;51.380;-0.176;2023-05-14T22:30:29;4.50;;;1.30;;
29700;SDS011;57917;51.380;-0.176;2023-05-14T22:36:20;1.35;;;1.00;;
29700;SDS011;57917;51.380;-0.176;2023-05-14T22:42:09;2.42;;;1.40;;
29700;SDS011;57917;51.380;-0.176;2023-05-14T22:47:57;1.48;;;1.05;;
29700;SDS011;57917;51.380;-0.176;2023-05-14T22:53:44;1.63;;;1.05;;
29700;SDS011;57917;51.380;-0.176;2023-05-14T22:59:35;1.60;;;1.20;;
29700;SDS011;57917;51.380;-0.176;2023-05-14T23:05:27;3.17;;;0.98;;
29700;SDS011;57917;51.380;-0.176;2023-05-14T23:11:20;2.92;;;1.05;;
29700;SDS011;57917;51.380;-0.176;2023-05-14T23:17:15;4.30;;;1.20;;
29700;SDS011;57917;51.380;-0.176;2023-05-14T23:23:04;3.63;;;1.35;;
29700;SDS011;57917;51.380;-0.176;2023-05-14T23:28:57;2.15;;;1.50;;
29700;SDS011;57917;51.380;-0.176;2023-05-14T23:34:46;4.00;;;1.60;;
29700;SDS011;57917;51.380;-0.176;2023-05-14T23:40:33;3.95;;;1.60;;
29700;SDS011;57917;51.380;-0.176;2023-05-14T23:46:20;3.08;;;1.67;;
29700;SDS011;57917;51.380;-0.176;2023-05-14T23:52:07;1.92;;;1.17;;
29700;SDS011;57917;51.380;-0.176;2023-05-14T23:57:54;3.22;;;1.50;;
